Time;durP1;ratioP1;P1;durP2;ratioP2;P2;SDS_P1;SDS_P2;PMS_P1;PMS_P2;Temp;Humidity;BMP_temperature;BMP_pressure;BME280_temperature;BME280_humidity;BME280_pressure;Samples;Min_cycle;Max_cycle;Signal;HPM_P1;HPM_P2
2021/03/03 00:01:29;;;;;;;6.10;3.40;;;7.50;99.90;;;;;;5056255;28;20943;-74
2021/03/03 00:03:55;;;;;;;5.80;3.22;;;7.40;99.90;;;;;;5054202;28;20780;-73
2021/03/03 00:06:22;;;;;;;6.75;3.35;;;7.40;99.90;;;;;;5054565;28;20475;-74
2021/03/03 00:08:50;;;;;;;7.53;3.50;;;7.40;99.90;;;;;;5054315;28;20821;-73
2021/03/03 00:11:17;;;;;;;6.40;3.58;;;7.30;99.90;;;;;;5053369;28;20421;-74
2021/03/03 00:13:44;;;;;;;7.25;3.40;;;7.30;99.90;;;;;;5053351;28;20845;-71
2021/03/03 00:16:11;;;;;;;5.80;3.22;;;7.30;99.90;;;;;;5053458;28;20425;-71
2021/03/03 00:18:37;;;;;;;5.75;3.00;;;7.30;99.90;;;;;;5054245;28;20803;-71
2021/03/03 00:21:04;;;;;;;6.78;3.78;;;7.40;99.90;;;;;;5053658;28;20713;-73
2021/03/03 00:23:30;;;;;;;5.93;3.30;;;7.40;99.90;;;;;;5053729;28;20538;-71
2021/03/03 00:25:57;;;;;;;8.07;3.85;;;7.30;99.90;;;;;;5054186;28;20428;-72
2021/03/03 00:28:23;;;;;;;6.38;2.85;;;7.30;99.90;;;;;;5054368;28;20424;-72
2021/03/03 00:30:51;;;;;;;6.43;3.30;;;7.20;99.90;;;;;;5054496;28;20421;-71
2021/03/03 00:33:18;;;;;;;6.70;2.97;;;7.20;99.90;;;;;;5053409;28;20729;-72
2021/03/03 00:35:44;;;;;;;6.43;3.63;;;7.20;99.90;;;;;;5054479;28;20464;-72
2021/03/03 00:38:11;;;;;;;6.10;2.80;;;7.20;99.90;;;;;;5054179;28;20821;-72
2021/03/03 00:40:37;;;;;;;6.43;3.70;;;7.10;99.90;;;;;;5054977;28;20444;-72
2021/03/03 00:43:04;;;;;;;6.28;3.22;;;7.10;99.90;;;;;;5054550;28;20433;-72
2021/03/03 00:45:31;;;;;;;5.07;2.80;;;7.00;99.90;;;;;;5055864;28;20429;-72
2021/03/03 00:47:58;;;;;;;5.30;3.40;;;7.00;99.90;;;;;;5055972;28;20433;-72
2021/03/03 00:50:28;;;;;;;6.30;2.88;;;7.00;99.90;;;;;;5055714;28;20456;-72
2021/03/03 00:52:54;;;;;;;5.38;3.05;;;7.00;99.90;;;;;;5055450;28;20428;-72
2021/03/03 00:55:21;;;;;;;8.23;3.47;;;7.00;99.90;;;;;;5055664;28;20487;-72
2021/03/03 00:57:48;;;;;;;5.93;2.95;;;6.90;99.90;;;;;;5054177;28;20422;-73
2021/03/03 01:00:15;;;;;;;6.22;2.88;;;6.90;99.90;;;;;;5054158;28;20433;-72
2021/03/03 01:02:42;;;;;;;5.88;2.83;;;6.80;99.90;;;;;;5052624;28;20429;-72
2021/03/03 01:05:11;;;;;;;6.70;2.78;;;6.80;99.90;;;;;;5052888;28;20463;-72
2021/03/03 01:07:38;;;;;;;7.70;3.57;;;6.80;99.90;;;;;;5053854;28;20421;-71
2021/03/03 01:10:05;;;;;;;7.38;3.58;;;6.80;99.90;;;;;;5054300;28;20437;-72
2021/03/03 01:12:32;;;;;;;7.10;3.20;;;6.90;99.90;;;;;;5054292;28;20426;-71
2021/03/03 01:14:58;;;;;;;4.50;2.58;;;6.80;99.90;;;;;;5055318;28;20425;-72
2021/03/03 01:17:25;;;;;;;6.85;3.55;;;6.80;99.90;;;;;;5055340;28;20478;-72
2021/03/03 01:19:51;;;;;;;4.50;3.10;;;6.80;99.90;;;;;;5055797;28;20435;-73
2021/03/03 01:22:19;;;;;;;5.95;3.33;;;6.80;99.90;;;;;;5055790;28;20429;-71
2021/03/03 01:24:45;;;;;;;6.38;3.40;;;6.90;99.90;;;;;;5056137;28;20848;-72
2021/03/03 01:27:12;;;;;;;7.43;3.40;;;6.90;99.90;;;;;;5055284;28;20417;-72
2021/03/03 01:29:38;;;;;;;6.13;3.58;;;6.90;99.90;;;;;;5056166;28;20436;-72
2021/03/03 01:32:06;;;;;;;6.13;3.10;;;6.90;99.90;;;;;;5057402;28;20421;-73
2021/03/03 01:34:33;;;;;;;6.57;3.50;;;6.80;99.90;;;;;;5056514;28;20433;-72
2021/03/03 01:36:59;;;;;;;6.05;3.72;;;6.80;99.90;;;;;;5055714;28;20425;-71
2021/03/03 01:39:27;;;;;;;5.70;2.92;;;6.90;99.90;;;;;;5055163;28;20844;-72
2021/03/03 01:41:54;;;;;;;6.35;3.83;;;6.90;99.90;;;;;;5054740;28;20527;-72
2021/03/03 01:44:21;;;;;;;5.45;3.50;;;6.90;99.90;;;;;;5054405;28;20433;-71
2021/03/03 01:46:47;;;;;;;6.77;3.00;;;6.90;99.90;;;;;;5053944;28;20697;-71
2021/03/03 01:49:14;;;;;;;7.60;3.28;;;6.90;99.90;;;;;;5054029;28;20440;-71
2021/03/03 01:51:40;;;;;;;7.30;4.00;;;6.90;99.90;;;;;;5054901;28;20724;-73
2021/03/03 01:54:07;;;;;;;6.97;3.95;;;6.80;99.90;;;;;;5055088;28;20436;-70
2021/03/03 01:56:35;;;;;;;7.20;3.30;;;6.80;99.90;;;;;;5054641;28;20747;-71
2021/03/03 01:59:01;;;;;;;7.22;3.55;;;6.80;99.90;;;;;;5055233;28;20440;-71
2021/03/03 02:01:28;;;;;;;9.52;4.18;;;6.80;99.90;;;;;;5054396;28;20632;-72
2021/03/03 02:03:55;;;;;;;5.97;3.42;;;6.80;99.90;;;;;;5054215;28;20437;-72
2021/03/03 02:06:26;;;;;;;5.68;3.53;;;6.70;99.90;;;;;;5054887;28;20893;-71
2021/03/03 02:09:00;;;;;;;6.22;3.75;;;6.70;99.90;;;;;;5055177;28;20486;-71
2021/03/03 02:11:35;;;;;;;8.32;4.70;;;6.70;99.90;;;;;;5055027;28;20479;-71
2021/03/03 02:14:07;;;;;;;6.07;4.15;;;6.70;99.90;;;;;;5054763;28;20436;-71
2021/03/03 02:16:35;;;;;;;6.43;3.80;;;6.60;99.90;;;;;;5054890;28;20433;-72
2021/03/03 02:19:04;;;;;;;7.85;4.03;;;6.70;99.90;;;;;;5055412;28;20452;-71
2021/03/03 02:21:35;;;;;;;5.95;3.70;;;6.70;99.90;;;;;;5054436;28;20421;-72
2021/03/03 02:24:07;;;;;;;7.18;4.15;;;6.70;99.90;;;;;;5052519;28;20441;-72
2021/03/03 02:26:38;;;;;;;6.03;3.17;;;6.70;99.90;;;;;;5058187;28;20424;-72
2021/03/03 02:29:06;;;;;;;7.07;3.30;;;6.60;99.90;;;;;;5057722;28;20573;-71
2021/03/03 02:31:34;;;;;;;7.15;3.13;;;6.60;99.90;;;;;;5057862;28;20424;-71
2021/03/03 02:34:03;;;;;;;7.93;4.07;;;6.60;99.90;;;;;;5058145;28;20429;-71
2021/03/03 02:36:30;;;;;;;7.88;4.25;;;6.60;99.90;;;;;;5058786;28;20542;-71
2021/03/03 02:38:57;;;;;;;4.90;3.40;;;6.50;99.90;;;;;;5058544;28;20840;-71
2021/03/03 02:41:28;;;;;;;6.80;3.15;;;6.50;99.90;;;;;;5057818;28;20421;-71
2021/03/03 02:43:57;;;;;;;7.05;3.67;;;6.50;99.90;;;;;;5056779;28;20436;-72
2021/03/03 02:46:24;;;;;;;8.55;4.20;;;6.60;99.90;;;;;;5057185;28;20516;-72
2021/03/03 02:48:50;;;;;;;5.97;3.17;;;6.60;99.90;;;;;;5056801;28;20429;-70
2021/03/03 02:51:17;;;;;;;7.37;3.73;;;6.60;99.90;;;;;;5056790;28;20432;-71
2021/03/03 02:53:44;;;;;;;7.30;3.10;;;6.50;99.90;;;;;;5056753;28;20448;-72
2021/03/03 02:56:11;;;;;;;6.15;3.90;;;6.50;99.90;;;;;;5057354;28;20433;-71
2021/03/03 02:58:38;;;;;;;8.35;4.28;;;6.60;99.90;;;;;;5057975;28;20704;-71
2021/03/03 03:01:09;;;;;;;7.22;3.22;;;6.60;99.90;;;;;;5057121;28;20507;-72
2021/03/03 03:03:42;;;;;;;5.90;3.90;;;6.50;99.90;;;;;;5057761;28;20563;-71
2021/03/03 03:06:18;;;;;;;7.18;3.80;;;6.50;99.90;;;;;;5058231;28;20894;-71
2021/03/03 03:08:46;;;;;;;6.68;3.50;;;6.50;99.90;;;;;;5057371;28;20439;-71
2021/03/03 03:11:19;;;;;;;7.53;3.50;;;6.60;99.90;;;;;;5057781;28;20425;-71
2021/03/03 03:13:46;;;;;;;5.60;3.30;;;6.70;99.90;;;;;;5058155;28;20440;-72
2021/03/03 03:16:15;;;;;;;9.27;3.40;;;6.70;99.90;;;;;;5057627;28;20433;-72
2021/03/03 03:18:45;;;;;;;6.90;3.70;;;6.70;99.90;;;;;;5057243;28;20436;-72
2021/03/03 03:21:14;;;;;;;8.75;4.18;;;6.60;99.90;;;;;;5057035;28;20425;-72
2021/03/03 03:23:41;;;;;;;9.13;4.82;;;6.60;99.90;;;;;;5057827;28;20473;-72
2021/03/03 03:26:08;;;;;;;6.60;3.60;;;6.50;99.90;;;;;;5057539;28;20417;-72
2021/03/03 03:28:37;;;;;;;7.65;4.63;;;6.50;99.90;;;;;;5056814;28;20454;-72
2021/03/03 03:31:05;;;;;;;8.63;4.97;;;6.50;99.90;;;;;;5057354;28;20424;-72
2021/03/03 03:33:33;;;;;;;8.70;4.88;;;6.50;99.90;;;;;;5057579;28;20428;-72
2021/03/03 03:36:00;;;;;;;7.50;4.15;;;6.50;99.90;;;;;;5055619;28;20674;-71
2021/03/03 03:38:28;;;;;;;6.40;3.97;;;6.50;99.90;;;;;;5056510;28;20475;-72
2021/03/03 03:40:55;;;;;;;9.10;4.45;;;6.50;99.90;;;;;;5055944;28;20739;-71
2021/03/03 03:43:24;;;;;;;8.65;4.82;;;6.60;99.90;;;;;;5056086;28;20417;-71
2021/03/03 03:45:50;;;;;;;8.17;4.60;;;6.50;99.90;;;;;;5056773;28;20419;-71
2021/03/03 03:48:18;;;;;;;6.67;4.40;;;6.40;99.90;;;;;;5057193;28;20425;-72
2021/03/03 03:50:46;;;;;;;8.00;4.47;;;6.40;99.90;;;;;;5057286;28;20432;-73
2021/03/03 03:53:12;;;;;;;7.15;4.35;;;6.40;99.90;;;;;;5056793;28;20478;-72
2021/03/03 03:55:40;;;;;;;7.27;4.40;;;6.40;99.90;;;;;;5055668;28;20441;-72
2021/03/03 03:58:07;;;;;;;7.90;4.38;;;6.40;99.90;;;;;;5056752;28;20421;-72
2021/03/03 04:00:34;;;;;;;8.70;4.00;;;6.50;99.90;;;;;;5056580;28;20436;-73
2021/03/03 04:03:01;;;;;;;6.80;4.28;;;6.40;99.90;;;;;;5055613;28;20856;-72
2021/03/03 04:05:28;;;;;;;8.68;3.47;;;6.40;99.90;;;;;;5055456;28;20748;-72
2021/03/03 04:07:56;;;;;;;8.73;4.13;;;6.50;99.90;;;;;;5055128;28;20428;-72
2021/03/03 04:10:25;;;;;;;9.73;4.20;;;6.40;99.90;;;;;;5055104;28;20425;-72
2021/03/03 04:12:52;;;;;;;6.90;3.77;;;6.40;99.90;;;;;;5055002;28;20425;-73
2021/03/03 04:15:19;;;;;;;6.10;3.65;;;6.30;99.90;;;;;;5055318;28;20896;-72
2021/03/03 04:17:46;;;;;;;5.85;3.35;;;6.30;99.90;;;;;;5056285;28;20432;-71
2021/03/03 04:20:13;;;;;;;7.03;4.30;;;6.30;99.90;;;;;;5056536;28;20840;-72
2021/03/03 04:22:40;;;;;;;6.70;3.97;;;6.30;99.90;;;;;;5055491;28;20425;-71
2021/03/03 04:25:10;;;;;;;7.70;3.43;;;6.40;99.90;;;;;;5054010;28;20489;-72
2021/03/03 04:27:37;;;;;;;6.72;3.97;;;6.40;99.90;;;;;;5053127;28;20513;-72
2021/03/03 04:30:06;;;;;;;7.20;3.63;;;6.40;99.90;;;;;;5053821;28;20436;-72
2021/03/03 04:32:32;;;;;;;6.45;3.67;;;6.50;99.90;;;;;;5055136;28;20422;-72
2021/03/03 04:34:59;;;;;;;7.18;4.20;;;6.50;99.90;;;;;;5055072;28;20488;-72
2021/03/03 04:37:26;;;;;;;7.85;4.32;;;6.30;99.90;;;;;;5054651;28;20910;-72
2021/03/03 04:39:52;;;;;;;7.10;4.10;;;6.30;99.90;;;;;;5055022;28;20421;-72
2021/03/03 04:42:20;;;;;;;5.07;3.55;;;6.30;99.90;;;;;;5054637;28;20899;-72
2021/03/03 04:44:47;;;;;;;7.28;3.85;;;6.30;99.90;;;;;;5056380;28;20535;-71
2021/03/03 04:47:13;;;;;;;7.15;4.65;;;6.30;99.90;;;;;;5054892;28;20428;-71
2021/03/03 04:49:40;;;;;;;8.20;4.40;;;6.30;99.90;;;;;;5055888;28;20429;-71
2021/03/03 04:52:06;;;;;;;9.55;4.13;;;6.30;99.90;;;;;;5055806;28;20428;-72
2021/03/03 04:54:34;;;;;;;9.13;4.20;;;6.30;99.90;;;;;;5056146;28;20429;-71
2021/03/03 04:57:01;;;;;;;8.60;3.80;;;6.40;99.90;;;;;;5055050;28;20429;-71
2021/03/03 04:59:28;;;;;;;7.55;4.50;;;6.40;99.90;;;;;;5054488;28;20433;-71
2021/03/03 05:01:55;;;;;;;6.90;4.17;;;6.40;99.90;;;;;;5054403;28;20482;-71
2021/03/03 05:04:21;;;;;;;8.23;4.70;;;6.40;99.90;;;;;;5054924;28;20752;-72
2021/03/03 05:06:48;;;;;;;6.55;3.72;;;6.40;99.90;;;;;;5053338;28;20841;-71
2021/03/03 05:09:15;;;;;;;8.73;3.83;;;6.40;99.90;;;;;;5054874;28;20440;-72
2021/03/03 05:11:41;;;;;;;6.57;4.18;;;6.40;99.90;;;;;;5046740;28;20434;-71
2021/03/03 05:14:08;;;;;;;6.50;3.45;;;6.40;99.90;;;;;;5054533;28;20799;-71
2021/03/03 05:16:36;;;;;;;8.32;4.90;;;6.40;99.90;;;;;;5047761;28;20439;-71
2021/03/03 05:19:02;;;;;;;8.25;4.88;;;6.40;99.90;;;;;;5054564;28;20433;-71
2021/03/03 05:21:29;;;;;;;7.45;3.90;;;6.50;99.90;;;;;;5048524;28;20480;-71
2021/03/03 05:23:56;;;;;;;7.53;3.50;;;6.40;99.90;;;;;;5052493;28;20437;-72
2021/03/03 05:26:22;;;;;;;7.17;4.13;;;6.40;99.90;;;;;;5049570;28;20430;-72
2021/03/03 05:28:49;;;;;;;7.97;4.20;;;6.50;99.90;;;;;;5051624;28;20433;-72
2021/03/03 05:31:16;;;;;;;7.03;3.97;;;6.60;99.90;;;;;;5053353;28;20424;-71
2021/03/03 05:33:44;;;;;;;6.33;4.50;;;6.50;99.90;;;;;;5054971;28;20441;-72
2021/03/03 05:36:11;;;;;;;6.93;3.67;;;6.50;99.90;;;;;;5052825;28;20476;-71
2021/03/03 05:38:40;;;;;;;6.22;3.55;;;6.50;99.90;;;;;;5050509;28;20437;-72
2021/03/03 05:41:07;;;;;;;6.00;4.18;;;6.50;99.90;;;;;;5054952;28;20535;-71
2021/03/03 05:43:35;;;;;;;6.95;3.88;;;6.40;99.90;;;;;;5046678;28;20740;-71
2021/03/03 05:46:03;;;;;;;7.87;4.67;;;6.30;99.90;;;;;;5054312;28;20425;-72
2021/03/03 05:48:33;;;;;;;7.45;4.50;;;6.20;99.90;;;;;;5046287;28;20446;-71
2021/03/03 05:51:01;;;;;;;5.78;3.58;;;6.10;99.90;;;;;;5053666;28;20775;-71
2021/03/03 05:53:29;;;;;;;7.18;3.83;;;6.10;99.90;;;;;;5054275;28;20429;-72
2021/03/03 05:55:56;;;;;;;5.85;4.53;;;6.10;99.90;;;;;;5054577;28;20468;-70
2021/03/03 05:58:24;;;;;;;6.60;4.35;;;6.20;99.90;;;;;;5045462;28;20429;-71
2021/03/03 06:00:51;;;;;;;7.07;4.35;;;6.20;99.90;;;;;;5054228;28;20780;-71
2021/03/03 06:03:18;;;;;;;8.10;4.38;;;6.30;99.90;;;;;;5051837;28;20429;-72
2021/03/03 06:05:47;;;;;;;5.30;3.80;;;6.30;99.90;;;;;;5053653;28;20508;-70
2021/03/03 06:08:17;;;;;;;5.88;2.92;;;6.40;99.90;;;;;;5052880;28;20547;-70
2021/03/03 06:10:44;;;;;;;7.15;3.88;;;6.60;99.90;;;;;;5052947;28;20433;-70
2021/03/03 06:13:12;;;;;;;4.55;3.03;;;6.70;99.90;;;;;;5053367;28;20436;-71
2021/03/03 06:15:39;;;;;;;7.55;3.55;;;6.80;99.90;;;;;;5053532;28;20440;-70
2021/03/03 06:18:07;;;;;;;6.50;4.10;;;6.90;99.90;;;;;;5052882;28;20840;-71
2021/03/03 06:20:37;;;;;;;8.03;3.80;;;6.90;99.90;;;;;;5053265;28;20864;-70
2021/03/03 06:23:15;;;;;;;6.40;3.88;;;7.00;99.90;;;;;;5051010;28;20495;-71
2021/03/03 06:25:43;;;;;;;6.47;3.22;;;6.90;99.90;;;;;;5047907;28;20437;-71
2021/03/03 06:28:10;;;;;;;8.30;3.90;;;7.10;99.90;;;;;;5045799;28;20435;-71
2021/03/03 06:30:37;;;;;;;7.75;4.03;;;7.20;99.90;;;;;;5054183;28;20875;-70
2021/03/03 06:33:05;;;;;;;6.68;4.10;;;7.20;99.90;;;;;;5052173;28;20452;-70
2021/03/03 06:35:38;;;;;;;7.18;5.13;;;7.20;99.90;;;;;;5054193;28;20437;-71
2021/03/03 06:38:05;;;;;;;6.80;4.45;;;7.10;99.90;;;;;;5052666;28;20429;-71
2021/03/03 06:40:34;;;;;;;6.75;4.15;;;7.00;99.90;;;;;;5044884;28;20433;-70
2021/03/03 06:43:22;;;;;;;7.38;4.15;;;7.10;99.90;;;;;;5050878;28;20425;-73
2021/03/03 06:45:49;;;;;;;8.52;3.97;;;7.20;99.90;;;;;;5047344;28;20948;-70
2021/03/03 06:48:34;;;;;;;8.68;4.20;;;7.30;99.90;;;;;;5051741;28;20530;-70
2021/03/03 06:51:01;;;;;;;7.67;4.70;;;7.30;99.90;;;;;;5052955;28;20421;-70
2021/03/03 06:53:33;;;;;;;9.77;5.40;;;7.30;99.90;;;;;;5052417;28;20457;-71
2021/03/03 06:56:01;;;;;;;9.65;6.35;;;7.30;99.90;;;;;;5051168;28;20426;-70
2021/03/03 06:58:29;;;;;;;8.23;5.85;;;7.40;99.90;;;;;;5051417;28;20667;-71
2021/03/03 07:00:57;;;;;;;8.68;5.30;;;7.60;99.90;;;;;;5051508;28;20429;-72
2021/03/03 07:03:28;;;;;;;9.77;5.30;;;7.60;99.90;;;;;;5050440;28;20433;-71
2021/03/03 07:05:55;;;;;;;10.88;5.40;;;7.60;99.90;;;;;;5051580;28;20995;-72
2021/03/03 07:08:22;;;;;;;11.10;5.20;;;7.60;99.90;;;;;;5051029;28;20432;-72
2021/03/03 07:10:49;;;;;;;7.82;4.60;;;7.80;99.90;;;;;;5053674;28;20460;-71
2021/03/03 07:13:17;;;;;;;6.88;4.10;;;7.80;99.90;;;;;;5056324;28;21123;-72
2021/03/03 07:15:44;;;;;;;8.57;6.60;;;7.90;99.90;;;;;;5056626;28;20503;-71
2021/03/03 07:18:34;;;;;;;9.88;5.68;;;7.90;99.90;;;;;;5055778;28;20421;-71
2021/03/03 07:21:02;;;;;;;9.10;5.25;;;7.70;99.90;;;;;;5056693;28;20429;-72
2021/03/03 07:23:45;;;;;;;8.32;4.72;;;7.50;99.90;;;;;;5053882;28;20516;-71
2021/03/03 07:26:13;;;;;;;10.10;5.65;;;7.60;99.90;;;;;;5054799;28;20426;-71
2021/03/03 07:28:41;;;;;;;9.20;5.60;;;7.70;99.90;;;;;;5055257;28;20442;-72
2021/03/03 07:31:09;;;;;;;8.07;5.13;;;7.80;99.90;;;;;;5054585;28;20421;-72
2021/03/03 07:33:35;;;;;;;11.45;5.63;;;7.90;99.90;;;;;;5054015;28;20436;-72
2021/03/03 07:36:04;;;;;;;8.55;4.70;;;7.70;99.90;;;;;;5049157;28;20485;-72
2021/03/03 07:38:33;;;;;;;9.95;5.20;;;7.60;99.90;;;;;;5056105;28;20433;-72
2021/03/03 07:41:05;;;;;;;9.73;5.05;;;7.70;99.90;;;;;;5054765;28;20756;-72
2021/03/03 07:43:32;;;;;;;7.60;5.20;;;8.00;99.90;;;;;;5052175;28;20431;-72
2021/03/03 07:46:03;;;;;;;11.00;5.78;;;8.10;99.90;;;;;;5045800;28;20423;-72
2021/03/03 07:48:32;;;;;;;13.20;5.93;;;8.20;99.90;;;;;;5053975;28;20479;-73
2021/03/03 07:50:59;;;;;;;8.75;4.88;;;8.10;99.90;;;;;;5049349;28;20438;-73
2021/03/03 07:53:26;;;;;;;12.48;5.78;;;8.00;99.90;;;;;;5053591;28;20856;-72
2021/03/03 07:55:56;;;;;;;10.80;5.18;;;7.90;99.90;;;;;;5054860;28;20440;-72
2021/03/03 07:58:24;;;;;;;9.20;4.20;;;7.80;99.90;;;;;;5056724;28;20486;-72
2021/03/03 08:00:51;;;;;;;86.78;18.00;;;8.00;99.90;;;;;;5054434;28;20425;-73
2021/03/03 08:03:41;;;;;;;10.18;7.03;;;8.30;99.90;;;;;;5055358;28;20429;-72
2021/03/03 08:06:23;;;;;;;137.98;22.52;;;8.40;99.90;;;;;;5051683;28;20422;-72
2021/03/03 08:09:12;;;;;;;23.45;8.05;;;8.40;99.90;;;;;;5048299;28;20851;-72
2021/03/03 08:11:40;;;;;;;10.30;7.15;;;8.40;99.90;;;;;;5053606;28;20436;-73
2021/03/03 08:14:38;;;;;;;10.43;7.53;;;8.10;99.90;;;;;;5054859;28;20491;-70
2021/03/03 08:17:08;;;;;;;12.27;6.57;;;7.80;99.90;;;;;;5048585;28;20440;-69
2021/03/03 08:19:59;;;;;;;12.57;6.13;;;7.80;99.90;;;;;;5054446;28;20863;-71
2021/03/03 08:22:48;;;;;;;11.23;6.47;;;7.90;99.90;;;;;;5052009;28;20433;-68
2021/03/03 08:25:43;;;;;;;9.40;6.13;;;8.00;99.90;;;;;;5053559;28;20487;-70
2021/03/03 08:28:31;;;;;;;10.55;6.18;;;8.40;99.90;;;;;;5053616;28;20487;-70
2021/03/03 08:31:32;;;;;;;12.32;6.90;;;8.60;99.90;;;;;;5046602;28;20473;-70
2021/03/03 08:34:00;;;;;;;10.38;6.35;;;8.80;99.90;;;;;;5054508;28;20433;-69
2021/03/03 08:37:08;;;;;;;12.05;6.50;;;9.00;99.90;;;;;;5054060;28;20425;-70
2021/03/03 08:39:37;;;;;;;9.68;6.05;;;8.90;99.90;;;;;;5045164;28;20433;-69
2021/03/03 08:42:35;;;;;;;9.88;6.38;;;9.00;99.90;;;;;;5054236;28;20879;-70
2021/03/03 08:45:13;;;;;;;9.68;6.53;;;9.00;99.90;;;;;;5053124;28;20421;-70
2021/03/03 08:47:57;;;;;;;9.88;6.38;;;8.60;99.90;;;;;;5048374;28;20428;-69
2021/03/03 08:50:48;;;;;;;10.80;6.32;;;8.60;99.90;;;;;;5053136;28;20487;-70
2021/03/03 08:53:33;;;;;;;8.77;5.67;;;9.00;99.90;;;;;;5049787;28;20859;-70
2021/03/03 08:56:19;;;;;;;11.65;7.63;;;9.20;99.90;;;;;;5055466;28;20478;-70
2021/03/03 08:58:54;;;;;;;14.75;8.40;;;9.10;99.90;;;;;;5046995;28;20429;-70
2021/03/03 09:01:54;;;;;;;15.27;8.75;;;8.90;99.90;;;;;;5054934;28;20436;-70
2021/03/03 09:04:23;;;;;;;9.20;6.45;;;8.70;99.90;;;;;;5054698;28;20859;-70
2021/03/03 09:06:52;;;;;;;11.50;7.50;;;8.70;99.90;;;;;;5054595;28;20428;-70
2021/03/03 09:09:26;;;;;;;9.80;6.03;;;8.80;99.90;;;;;;5052888;28;20425;-71
2021/03/03 09:12:02;;;;;;;10.60;7.07;;;9.10;99.90;;;;;;5054031;28;20417;-70
2021/03/03 09:14:29;;;;;;;14.55;7.13;;;9.30;99.90;;;;;;5054801;28;20420;-70
2021/03/03 09:16:58;;;;;;;10.50;6.63;;;9.60;99.90;;;;;;5052886;28;20425;-70
2021/03/03 09:19:25;;;;;;;10.90;6.03;;;9.60;99.90;;;;;;5052213;28;20873;-70
2021/03/03 09:21:52;;;;;;;11.88;7.32;;;9.30;99.90;;;;;;5052614;28;20852;-70
2021/03/03 09:24:27;;;;;;;13.13;6.38;;;9.10;99.90;;;;;;5052435;28;20495;-70
2021/03/03 09:27:07;;;;;;;11.57;6.53;;;9.20;99.90;;;;;;5053511;28;20482;-71
2021/03/03 09:29:35;;;;;;;12.32;7.93;;;9.40;99.90;;;;;;5046809;28;20433;-71
2021/03/03 09:32:07;;;;;;;10.10;6.60;;;9.60;99.90;;;;;;5055569;28;20747;-70
2021/03/03 09:34:35;;;;;;;10.18;7.55;;;9.60;99.90;;;;;;5050818;28;20799;-70
2021/03/03 09:37:04;;;;;;;12.45;7.20;;;9.40;99.90;;;;;;5050040;28;20491;-71
2021/03/03 09:39:32;;;;;;;9.63;6.90;;;9.40;99.90;;;;;;5052063;28;20437;-70
2021/03/03 09:42:01;;;;;;;16.57;8.40;;;9.40;99.90;;;;;;5051029;28;20759;-71
2021/03/03 09:44:43;;;;;;;12.70;6.53;;;9.40;99.90;;;;;;5047737;28;20787;-71
2021/03/03 09:47:09;;;;;;;10.93;6.55;;;9.50;99.90;;;;;;5043370;28;20873;-70
2021/03/03 09:49:37;;;;;;;11.63;7.85;;;9.70;99.90;;;;;;5050248;28;20490;-71
2021/03/03 09:52:05;;;;;;;10.77;7.55;;;9.80;99.90;;;;;;5051894;28;20436;-71
2021/03/03 09:54:35;;;;;;;12.52;7.10;;;9.90;99.90;;;;;;5049790;28;20466;-71
2021/03/03 09:57:09;;;;;;;10.57;7.28;;;10.00;99.90;;;;;;5042696;28;20433;-72
2021/03/03 09:59:38;;;;;;;12.85;7.93;;;10.00;99.90;;;;;;5052273;28;20872;-72
2021/03/03 10:02:06;;;;;;;11.48;7.28;;;10.10;99.90;;;;;;5052884;28;20699;-71
2021/03/03 10:04:38;;;;;;;8.82;6.90;;;10.00;99.90;;;;;;5053249;28;20429;-71
2021/03/03 10:07:10;;;;;;;10.57;6.80;;;10.00;99.90;;;;;;5052173;28;20810;-71
2021/03/03 10:09:40;;;;;;;13.07;7.20;;;10.30;99.90;;;;;;5048720;28;20494;-71
2021/03/03 10:12:09;;;;;;;10.23;7.32;;;10.50;99.90;;;;;;5044192;28;20432;-72
2021/03/03 10:14:36;;;;;;;11.00;7.00;;;10.70;99.90;;;;;;5052679;28;20457;-71
2021/03/03 10:17:03;;;;;;;11.52;6.60;;;10.80;99.90;;;;;;5052146;28;20744;-69
2021/03/03 10:19:42;;;;;;;13.48;8.35;;;10.80;99.90;;;;;;5051853;28;20429;-69
2021/03/03 10:22:09;;;;;;;10.90;7.30;;;10.60;99.90;;;;;;5050775;28;20464;-70
2021/03/03 10:24:43;;;;;;;15.93;7.70;;;10.50;99.90;;;;;;5053146;28;20471;-70
2021/03/03 10:27:19;;;;;;;14.50;8.18;;;10.60;99.90;;;;;;5051030;28;20475;-71
2021/03/03 10:29:45;;;;;;;11.27;7.25;;;10.80;99.90;;;;;;5034703;28;20451;-71
2021/03/03 10:32:13;;;;;;;13.00;7.05;;;10.90;99.90;;;;;;5051903;28;20479;-70
2021/03/03 10:34:41;;;;;;;10.80;7.68;;;11.10;99.90;;;;;;5051842;28;20443;-70
2021/03/03 10:37:22;;;;;;;13.65;7.60;;;11.10;99.90;;;;;;5051002;28;20429;-70
2021/03/03 10:39:51;;;;;;;10.53;7.00;;;11.00;99.90;;;;;;5050431;28;20499;-70
2021/03/03 10:42:22;;;;;;;13.70;7.50;;;11.30;99.90;;;;;;5050006;28;20417;-71
2021/03/03 10:44:58;;;;;;;12.45;8.30;;;11.70;99.90;;;;;;5050182;28;20849;-71
2021/03/03 10:47:41;;;;;;;10.80;8.27;;;12.00;99.90;;;;;;5046508;28;20421;-71
2021/03/03 10:50:09;;;;;;;12.95;7.85;;;12.10;99.90;;;;;;5055881;28;20440;-71
2021/03/03 10:52:37;;;;;;;11.25;7.43;;;12.10;99.90;;;;;;5055273;28;20744;-70
2021/03/03 10:55:19;;;;;;;10.57;7.65;;;12.00;99.90;;;;;;5054536;28;20433;-70
2021/03/03 10:58:06;;;;;;;11.35;7.60;;;11.90;99.90;;;;;;5054975;28;20817;-69
2021/03/03 11:00:52;;;;;;;10.32;7.40;;;12.00;99.90;;;;;;5050123;28;20780;-70
2021/03/03 11:03:19;;;;;;;10.60;8.10;;;12.10;99.90;;;;;;5053672;28;20422;-70
2021/03/03 11:05:49;;;;;;;14.35;8.43;;;12.50;99.90;;;;;;5052946;28;20448;-69
2021/03/03 11:08:16;;;;;;;14.20;8.48;;;12.70;99.90;;;;;;5051494;28;20429;-70
2021/03/03 11:10:44;;;;;;;10.13;7.85;;;12.60;99.90;;;;;;5052464;28;20425;-69
2021/03/03 11:13:10;;;;;;;9.60;8.07;;;12.40;99.90;;;;;;5051951;28;20744;-70
2021/03/03 11:15:40;;;;;;;13.23;8.68;;;12.10;99.90;;;;;;5053922;28;20436;-70
2021/03/03 11:18:07;;;;;;;9.88;7.95;;;12.10;99.90;;;;;;5050601;28;20421;-70
2021/03/03 11:20:34;;;;;;;11.85;7.53;;;12.10;99.90;;;;;;5035088;28;20863;-70
2021/03/03 11:23:00;;;;;;;12.60;8.00;;;12.20;99.90;;;;;;5040412;28;20506;-70
2021/03/03 11:25:27;;;;;;;10.88;8.00;;;12.30;99.90;;;;;;5045913;28;22110;-70
2021/03/03 11:27:55;;;;;;;11.07;7.78;;;12.30;99.90;;;;;;5036930;28;20436;-71
2021/03/03 11:30:22;;;;;;;13.77;8.77;;;12.50;99.90;;;;;;5053270;28;20460;-70
2021/03/03 11:32:50;;;;;;;9.70;7.70;;;12.90;99.90;;;;;;5054219;28;20914;-71
2021/03/03 11:35:17;;;;;;;11.23;7.50;;;12.80;99.90;;;;;;5053993;28;20445;-71
2021/03/03 11:37:44;;;;;;;11.40;7.60;;;12.90;99.90;;;;;;5052728;28;20440;-71
2021/03/03 11:40:12;;;;;;;11.05;9.00;;;13.00;99.90;;;;;;5052396;28;20433;-70
2021/03/03 11:42:39;;;;;;;9.00;7.80;;;13.10;99.90;;;;;;5052602;28;20425;-71
2021/03/03 11:45:08;;;;;;;10.67;7.93;;;13.30;99.90;;;;;;5052609;28;21094;-71
2021/03/03 11:47:35;;;;;;;20.50;9.83;;;13.50;99.90;;;;;;5053641;28;20475;-74
2021/03/03 11:50:01;;;;;;;10.68;7.78;;;13.60;99.90;;;;;;5054510;28;20433;-74
2021/03/03 11:52:28;;;;;;;10.93;8.70;;;13.80;99.90;;;;;;5055028;28;20460;-74
2021/03/03 11:54:54;;;;;;;11.80;7.95;;;13.70;99.90;;;;;;5054710;28;20433;-74
2021/03/03 11:57:21;;;;;;;12.15;8.80;;;13.70;99.90;;;;;;5052259;28;20488;-73
2021/03/03 11:59:49;;;;;;;9.13;8.02;;;13.70;99.90;;;;;;5052699;28;20939;-74
2021/03/03 12:02:17;;;;;;;10.80;9.23;;;13.40;99.90;;;;;;5053562;28;20429;-74
2021/03/03 12:04:44;;;;;;;11.98;7.40;;;13.40;99.90;;;;;;5052267;28;20430;-74
2021/03/03 12:07:11;;;;;;;11.05;7.90;;;13.40;99.90;;;;;;5052885;28;20422;-74
2021/03/03 12:09:38;;;;;;;10.63;8.52;;;13.50;99.90;;;;;;5054344;28;20429;-73
2021/03/03 12:12:05;;;;;;;9.45;7.47;;;13.40;99.90;;;;;;5052779;28;20715;-73
2021/03/03 12:14:32;;;;;;;11.23;8.05;;;13.50;99.90;;;;;;5054195;28;20439;-73
2021/03/03 12:16:59;;;;;;;10.45;9.07;;;13.40;99.90;;;;;;5053956;28;20433;-74
2021/03/03 12:19:26;;;;;;;9.43;7.68;;;13.30;99.90;;;;;;5044387;28;20516;-73
2021/03/03 12:21:53;;;;;;;13.67;8.83;;;13.10;99.90;;;;;;5052877;28;20881;-73
2021/03/03 12:24:20;;;;;;;12.75;7.05;;;13.20;99.90;;;;;;5052409;28;20431;-74
2021/03/03 12:26:47;;;;;;;10.63;6.90;;;13.40;99.90;;;;;;5051954;28;20915;-74
2021/03/03 12:29:14;;;;;;;12.40;7.97;;;13.50;99.90;;;;;;5052618;28;20795;-73
2021/03/03 12:31:40;;;;;;;10.20;8.40;;;13.50;99.90;;;;;;5051490;28;20425;-73
2021/03/03 12:34:07;;;;;;;9.30;7.40;;;13.70;99.90;;;;;;5050798;28;20444;-74
2021/03/03 12:36:35;;;;;;;8.90;8.00;;;13.80;99.90;;;;;;5050773;28;20871;-73
2021/03/03 12:39:01;;;;;;;11.90;8.60;;;13.70;99.90;;;;;;5050973;28;20639;-73
2021/03/03 12:41:28;;;;;;;10.95;8.63;;;13.90;99.90;;;;;;5050715;28;20428;-73
2021/03/03 12:43:55;;;;;;;12.93;8.85;;;14.00;99.90;;;;;;5050006;28;20447;-72
2021/03/03 12:46:21;;;;;;;10.10;7.97;;;14.00;99.90;;;;;;5051513;28;20956;-73
2021/03/03 12:48:48;;;;;;;10.05;7.30;;;14.00;99.90;;;;;;5051921;28;20741;-73
2021/03/03 12:51:15;;;;;;;14.00;8.80;;;14.10;99.90;;;;;;5052304;28;20523;-73
2021/03/03 12:53:44;;;;;;;12.32;9.07;;;14.20;99.90;;;;;;5053373;28;20441;-73
2021/03/03 12:56:11;;;;;;;13.07;9.00;;;14.10;99.90;;;;;;5043286;28;20532;-73
2021/03/03 12:58:38;;;;;;;9.45;8.32;;;14.00;99.90;;;;;;5050224;28;20833;-73
2021/03/03 13:01:05;;;;;;;13.68;8.77;;;13.70;99.90;;;;;;5053171;28;20417;-73
2021/03/03 13:03:31;;;;;;;12.00;8.02;;;13.70;99.90;;;;;;5045121;28;20431;-73